Time;durP1;ratioP1;P1;durP2;ratioP2;P2;SDS_P1;SDS_P2;PMS_P1;PMS_P2;Temp;Humidity;BMP_temperature;BMP_pressure;BME280_temperature;BME280_humidity;BME280_pressure;Samples;Min_cycle;Max_cycle;Signal;HPM_P1;HPM_P2
2022/04/23 00:00:50;;;;;;;9.95;5.32;;;;;;;11.30;90.97;100598.94;5092607;28;20028;-72
2022/04/23 00:03:16;;;;;;;8.40;4.75;;;;;;;11.35;90.30;100596.31;5091090;28;20029;-72
2022/04/23 00:05:41;;;;;;;9.32;4.97;;;;;;;11.28;91.25;100598.88;5092374;28;20024;-73
2022/04/23 00:08:08;;;;;;;7.45;4.88;;;;;;;11.28;91.21;100595.38;5092557;28;20027;-73
2022/04/23 00:10:34;;;;;;;6.97;5.00;;;;;;;11.37;90.72;100590.19;5092286;28;20077;-72
2022/04/23 00:12:59;;;;;;;7.05;4.97;;;;;;;11.40;90.60;100592.84;5093199;28;20036;-72
2022/04/23 00:15:25;;;;;;;6.00;4.57;;;;;;;11.32;91.07;100591.91;5093204;28;20148;-72
2022/04/23 00:17:51;;;;;;;6.85;5.13;;;;;;;11.35;90.94;100591.91;5093064;28;20120;-72
2022/04/23 00:20:18;;;;;;;7.00;5.40;;;;;;;11.28;91.72;100590.09;5091425;28;20031;-72
2022/04/23 00:22:44;;;;;;;6.93;5.45;;;;;;;11.27;91.77;100596.25;5092290;28;20103;-72
2022/04/23 00:25:09;;;;;;;6.55;5.43;;;;;;;11.28;91.83;100590.09;5092877;28;20100;-72
2022/04/23 00:27:35;;;;;;;8.88;5.22;;;;;;;11.32;91.65;100586.63;5092692;28;20035;-73
2022/04/23 00:30:01;;;;;;;9.38;5.55;;;;;;;11.24;92.51;100594.44;5091347;28;20032;-72
2022/04/23 00:32:26;;;;;;;8.73;5.75;;;;;;;11.29;91.89;100581.34;5091299;28;20015;-72
2022/04/23 00:34:51;;;;;;;8.18;5.72;;;;;;;11.33;92.04;100587.50;5089319;28;20031;-72
2022/04/23 00:37:17;;;;;;;9.45;6.32;;;;;;;11.30;91.65;100594.53;5090524;28;20058;-73
2022/04/23 00:39:42;;;;;;;7.95;5.60;;;;;;;11.34;91.52;100589.28;5092202;28;20472;-72
2022/04/23 00:42:09;;;;;;;9.15;5.90;;;;;;;11.29;92.01;100583.97;5091324;28;20023;-72
2022/04/23 00:44:35;;;;;;;8.15;6.00;;;;;;;11.31;92.02;100579.59;5092357;28;20414;-72
2022/04/23 00:47:01;;;;;;;10.45;6.10;;;;;;;11.28;92.16;100584.84;5092071;28;20024;-72
2022/04/23 00:49:27;;;;;;;10.45;7.10;;;;;;;11.28;92.19;100585.72;5090968;28;20356;-72
2022/04/23 00:51:52;;;;;;;7.75;5.78;;;;;;;11.22;92.84;100584.81;5087724;28;20035;-72
2022/04/23 00:54:19;;;;;;;8.55;5.93;;;;;;;11.23;93.47;100583.91;5090679;28;20020;-73
2022/04/23 00:56:45;;;;;;;8.25;5.97;;;;;;;11.20;93.06;100587.38;5091767;28;20487;-73
2022/04/23 00:59:12;;;;;;;8.38;5.85;;;;;;;11.16;93.88;100579.47;5091705;28;20020;-73
2022/04/23 01:01:40;;;;;;;10.52;6.18;;;;;;;11.07;94.04;100575.88;5089101;28;20039;-72
2022/04/23 01:04:06;;;;;;;9.38;6.25;;;;;;;11.10;94.04;100581.16;5090043;28;20023;-72
2022/04/23 01:06:34;;;;;;;12.75;6.80;;;;;;;11.10;93.96;100581.16;5083520;28;20054;-72
2022/04/23 01:09:07;;;;;;;8.07;6.13;;;;;;;11.13;93.77;100573.28;5092183;28;20056;-73
2022/04/23 01:11:34;;;;;;;9.40;6.70;;;;;;;11.07;94.49;100585.50;5084914;28;20028;-73
2022/04/23 01:14:01;;;;;;;13.00;7.30;;;;;;;11.11;94.01;100582.06;5089973;28;20444;-72
2022/04/23 01:16:26;;;;;;;11.23;7.60;;;;;;;11.03;95.19;100579.34;5091775;28;20143;-72
2022/04/23 01:18:52;;;;;;;16.50;7.10;;;;;;;11.01;95.31;100573.16;5091243;28;20040;-72
2022/04/23 01:21:17;;;;;;;11.50;7.13;;;;;;;11.08;94.98;100572.38;5087626;28;20460;-72
2022/04/23 01:23:46;;;;;;;9.52;6.97;;;;;;;11.03;95.21;100576.69;5092195;28;20042;-72
2022/04/23 01:26:11;;;;;;;12.48;7.40;;;;;;;10.99;96.33;100577.53;5090723;28;20222;-72
2022/04/23 01:28:38;;;;;;;12.10;7.68;;;;;;;11.02;95.93;100585.47;5088671;28;20028;-72
2022/04/23 01:31:04;;;;;;;9.60;7.57;;;;;;;10.99;95.93;100582.81;5084368;28;20027;-72
2022/04/23 01:33:32;;;;;;;12.98;7.70;;;;;;;10.88;97.06;100573.88;5088349;28;20103;-72
2022/04/23 01:35:57;;;;;;;10.50;8.00;;;;;;;10.89;97.19;100575.66;5092083;28;20035;-72
2022/04/23 01:38:23;;;;;;;10.18;8.13;;;;;;;10.91;97.01;100579.22;5092496;28;20044;-72
2022/04/23 01:40:48;;;;;;;11.65;8.55;;;;;;;10.89;97.18;100580.94;5091835;28;20062;-73
2022/04/23 01:43:14;;;;;;;15.13;9.27;;;;;;;10.86;97.43;100580.91;5088044;28;20089;-72
2022/04/23 01:45:40;;;;;;;12.73;8.50;;;;;;;10.86;97.09;100578.28;5090399;28;20019;-72
2022/04/23 01:48:06;;;;;;;13.50;8.90;;;;;;;10.86;97.31;100586.16;5089433;28;20070;-72
2022/04/23 01:50:31;;;;;;;13.07;8.85;;;;;;;10.80;98.18;100589.63;5091157;28;20535;-72
2022/04/23 01:52:56;;;;;;;17.50;9.77;;;;;;;10.73;98.41;100572.88;5089234;28;20479;-72
2022/04/23 01:55:22;;;;;;;13.18;9.52;;;;;;;10.74;98.90;100581.63;5088793;28;20028;-72
2022/04/23 01:57:47;;;;;;;12.55;8.60;;;;;;;10.70;98.85;100591.28;5095055;28;20028;-72
2022/04/23 02:00:14;;;;;;;11.88;9.23;;;;;;;10.68;98.79;100581.59;5095318;28;20102;-72
2022/04/23 02:02:40;;;;;;;16.55;9.52;;;;;;;10.73;98.53;100586.03;5092648;28;20036;-72
2022/04/23 02:05:07;;;;;;;12.75;8.90;;;;;;;10.70;99.18;100585.09;5095684;28;20098;-71
2022/04/23 02:07:43;;;;;;;14.38;9.18;;;;;;;10.71;98.94;100581.63;5092707;28;20036;-71
2022/04/23 02:10:10;;;;;;;10.73;9.63;;;;;;;10.71;98.68;100576.34;5090899;28;20051;-72
2022/04/23 02:12:38;;;;;;;13.30;9.55;;;;;;;10.69;98.55;100581.59;5094926;28;20027;-72
2022/04/23 02:15:07;;;;;;;16.17;10.00;;;;;;;10.67;99.18;100577.19;5094207;28;20116;-72
2022/04/23 02:17:37;;;;;;;13.68;9.35;;;;;;;10.60;99.72;100576.22;5094374;28;20446;-71
2022/04/23 02:20:13;;;;;;;13.27;9.55;;;;;;;10.56;100.00;100583.19;5094114;28;20028;-72
2022/04/23 02:22:40;;;;;;;12.95;10.73;;;;;;;10.58;100.00;100575.31;5092896;28;20111;-72
2022/04/23 02:25:06;;;;;;;14.43;10.20;;;;;;;10.59;99.73;100584.97;5092399;28;20446;-72
2022/04/23 02:27:48;;;;;;;19.17;10.65;;;;;;;10.51;100.00;100579.59;5093653;28;20779;-72
2022/04/23 02:30:19;;;;;;;16.35;11.10;;;;;;;10.52;100.00;100586.63;5094517;28;20023;-72
2022/04/23 02:32:45;;;;;;;17.83;11.20;;;;;;;10.51;100.00;100587.50;5090430;28;20093;-71
2022/04/23 02:35:12;;;;;;;16.23;10.13;;;;;;;10.53;100.00;100587.53;5095086;28;20024;-71
2022/04/23 02:37:38;;;;;;;14.88;11.50;;;;;;;10.53;100.00;100587.53;5091495;28;20047;-71
2022/04/23 02:40:05;;;;;;;16.25;10.98;;;;;;;10.54;100.00;100587.56;5092382;28;20028;-71
2022/04/23 02:42:33;;;;;;;15.30;10.48;;;;;;;10.53;100.00;100582.28;5093394;28;20432;-72
2022/04/23 02:45:03;;;;;;;13.60;10.35;;;;;;;10.43;100.00;100583.88;5091080;28;20093;-72
2022/04/23 02:47:29;;;;;;;14.48;11.23;;;;;;;10.40;100.00;100582.09;5092777;28;20032;-72
2022/04/23 02:49:55;;;;;;;18.95;11.80;;;;;;;10.39;100.00;100590.88;5094235;28;20024;-71
2022/04/23 02:52:20;;;;;;;16.38;11.23;;;;;;;10.41;100.00;100590.88;5092034;28;20135;-71
2022/04/23 02:54:46;;;;;;;18.17;11.90;;;;;;;10.40;100.00;100597.00;5094000;28;20402;-72
2022/04/23 02:57:12;;;;;;;16.10;11.98;;;;;;;10.42;100.00;100596.16;5093507;28;20074;-72
2022/04/23 02:59:39;;;;;;;18.88;11.93;;;;;;;10.45;100.00;100590.94;5094414;28;20028;-72
2022/04/23 03:02:05;;;;;;;15.18;12.02;;;;;;;10.48;100.00;100591.84;5093400;28;20031;-71
2022/04/23 03:04:30;;;;;;;16.45;12.02;;;;;;;10.46;100.00;100589.22;5093389;28;20123;-72
2022/04/23 03:06:56;;;;;;;15.07;11.52;;;;;;;10.51;100.00;100590.13;5092169;28;20490;-72
2022/04/23 03:09:22;;;;;;;18.55;12.73;;;;;;;10.34;100.00;100592.53;5091091;28;20455;-72
2022/04/23 03:11:48;;;;;;;16.42;12.23;;;;;;;10.39;100.00;100590.88;5092447;28;20115;-72
2022/04/23 03:14:13;;;;;;;19.92;12.85;;;;;;;10.29;100.00;100594.19;5094149;28;20032;-71
2022/04/23 03:16:38;;;;;;;18.10;13.07;;;;;;;10.32;100.00;100591.59;5092029;28;20076;-71
2022/04/23 03:19:04;;;;;;;19.02;12.30;;;;;;;10.33;100.00;100593.38;5093879;28;20044;-71
2022/04/23 03:21:29;;;;;;;18.30;13.45;;;;;;;10.30;100.00;100590.72;5093879;28;20028;-71
2022/04/23 03:23:54;;;;;;;17.67;13.55;;;;;;;10.23;100.00;100588.88;5090932;28;20031;-71
2022/04/23 03:26:20;;;;;;;21.58;14.05;;;;;;;10.30;100.00;100593.34;5091370;28;20387;-71
2022/04/23 03:28:45;;;;;;;18.55;13.45;;;;;;;10.28;100.00;100585.44;5093989;28;20107;-71
2022/04/23 03:31:11;;;;;;;22.08;13.20;;;;;;;10.21;100.00;100582.69;5093747;28;20016;-71
2022/04/23 03:33:36;;;;;;;20.48;14.05;;;;;;;10.24;100.00;100588.00;5088158;28;20020;-72
2022/04/23 03:36:02;;;;;;;19.83;14.90;;;;;;;10.21;100.00;100585.31;5090253;28;20031;-71
2022/04/23 03:38:28;;;;;;;18.73;14.73;;;;;;;10.13;100.00;100585.22;5091937;28;20028;-72
2022/04/23 03:40:54;;;;;;;21.52;14.68;;;;;;;10.17;100.00;100591.41;5090476;28;20081;-72
2022/04/23 03:43:25;;;;;;;19.48;14.88;;;;;;;10.26;100.00;100587.16;5093490;28;20429;-72
2022/04/23 03:45:52;;;;;;;20.17;14.85;;;;;;;10.25;100.00;100584.50;5093216;28;20059;-72
2022/04/23 03:48:17;;;;;;;20.98;14.90;;;;;;;10.26;100.00;100581.00;5091902;28;20043;-72
2022/04/23 03:50:43;;;;;;;20.83;15.43;;;;;;;10.33;100.00;100579.34;5091136;28;20399;-71
2022/04/23 03:53:09;;;;;;;20.42;15.85;;;;;;;10.39;100.00;100582.09;5092058;28;20475;-72
2022/04/23 03:55:35;;;;;;;23.55;16.38;;;;;;;10.32;100.00;100578.44;5091454;28;20031;-72
2022/04/23 03:58:01;;;;;;;21.40;16.38;;;;;;;10.21;100.00;100580.94;5092032;28;20391;-72
2022/04/23 04:00:28;;;;;;;22.83;15.68;;;;;;;10.26;100.00;100581.88;5108927;28;20056;-71
2022/04/23 04:02:55;;;;;;;21.40;15.88;;;;;;;10.27;100.00;100581.03;5086462;28;20036;-71
2022/04/23 04:05:20;;;;;;;21.00;16.00;;;;;;;10.27;100.00;100575.78;5092540;28;20024;-71
2022/04/23 04:07:47;;;;;;;21.70;16.23;;;;;;;10.25;100.00;100577.47;5092713;28;20046;-73
2022/04/23 04:10:16;;;;;;;23.33;17.58;;;;;;;10.17;100.00;100567.75;5090642;28;20016;-72
2022/04/23 04:12:41;;;;;;;23.70;17.95;;;;;;;10.18;100.00;100569.50;5091266;28;20137;-72
2022/04/23 04:15:09;;;;;;;23.27;17.13;;;;;;;10.15;100.00;100564.19;5092870;28;20130;-72
2022/04/23 04:17:35;;;;;;;23.45;16.40;;;;;;;10.19;100.00;100572.16;5091578;28;20040;-72
2022/04/23 04:20:02;;;;;;;23.42;17.25;;;;;;;10.20;100.00;100562.50;5092231;28;20528;-72
2022/04/23 04:22:28;;;;;;;26.02;18.23;;;;;;;10.11;100.00;100551.00;5091620;28;20016;-72
2022/04/23 04:24:54;;;;;;;25.83;17.83;;;;;;;10.12;100.00;100555.41;5093112;28;20498;-72
2022/04/23 04:27:19;;;;;;;26.58;19.50;;;;;;;10.08;100.00;100556.22;5092858;28;20023;-72
2022/04/23 04:29:45;;;;;;;29.77;19.77;;;;;;;10.04;100.00;100558.81;5093204;28;20055;-72
2022/04/23 04:32:12;;;;;;;25.40;19.02;;;;;;;9.98;100.00;100549.06;5089254;28;20020;-72
2022/04/23 04:34:38;;;;;;;24.55;18.88;;;;;;;10.05;100.00;100557.94;5090178;28;20391;-72
2022/04/23 04:37:05;;;;;;;25.55;19.00;;;;;;;10.05;100.00;100548.31;5087155;28;20028;-72
2022/04/23 04:39:31;;;;;;;29.13;19.42;;;;;;;10.03;100.00;100549.16;5091978;28;20032;-72
2022/04/23 04:41:56;;;;;;;27.25;19.15;;;;;;;10.07;100.00;100551.84;5092185;28;20024;-72
2022/04/23 04:44:22;;;;;;;27.63;20.35;;;;;;;10.06;100.00;100552.69;5091320;28;20391;-73
2022/04/23 04:46:47;;;;;;;26.98;18.70;;;;;;;10.11;100.00;100548.38;5092296;28;20041;-72
2022/04/23 04:49:13;;;;;;;27.75;19.77;;;;;;;10.15;100.00;100556.31;5093027;28;20111;-71
2022/04/23 04:51:39;;;;;;;27.40;20.73;;;;;;;10.08;100.00;100552.72;5088512;28;20065;-72
2022/04/23 04:54:05;;;;;;;26.80;20.08;;;;;;;10.03;100.00;100560.53;5092012;28;20059;-72
2022/04/23 04:56:30;;;;;;;27.60;20.45;;;;;;;10.03;100.00;100550.03;5092201;28;20039;-71
2022/04/23 04:58:55;;;;;;;24.00;18.25;;;;;;;10.07;100.00;100557.09;5090561;28;20032;-72
2022/04/23 05:01:21;;;;;;;26.80;20.65;;;;;;;10.05;100.00;100558.84;5087515;28;20024;-71
2022/04/23 05:03:47;;;;;;;28.92;21.48;;;;;;;10.03;100.00;100565.78;5087423;28;20036;-72
2022/04/23 05:06:12;;;;;;;27.70;20.73;;;;;;;10.05;100.00;100568.44;5091554;28;20359;-73
2022/04/23 05:08:38;;;;;;;28.10;20.40;;;;;;;10.07;100.00;100567.59;5088958;28;20043;-72
2022/04/23 05:11:04;;;;;;;27.00;20.67;;;;;;;10.00;100.00;100571.03;5092593;28;20032;-72
2022/04/23 05:13:29;;;;;;;27.65;21.20;;;;;;;10.05;100.00;100574.59;5091400;28;20074;-71
2022/04/23 05:15:55;;;;;;;27.73;20.40;;;;;;;10.04;100.00;100572.81;5089831;28;20024;-70
2022/04/23 05:18:21;;;;;;;28.30;20.70;;;;;;;10.13;100.00;100572.97;5088276;28;20044;-71
2022/04/23 05:20:46;;;;;;;31.02;21.35;;;;;;;10.06;100.00;100568.47;5091713;28;20031;-70
2022/04/23 05:23:13;;;;;;;26.67;21.40;;;;;;;10.05;100.00;100577.22;5087434;28;20034;-70
2022/04/23 05:25:38;;;;;;;32.55;22.70;;;;;;;10.04;100.00;100571.97;5090946;28;20032;-71
2022/04/23 05:28:04;;;;;;;28.90;20.80;;;;;;;10.03;100.00;100571.06;5089199;28;20085;-71
2022/04/23 05:30:29;;;;;;;29.83;22.80;;;;;;;10.06;100.00;100571.09;5094294;28;20495;-70
2022/04/23 05:32:54;;;;;;;31.33;22.00;;;;;;;10.00;100.00;100571.03;5094132;28;20042;-71
2022/04/23 05:35:20;;;;;;;29.20;22.58;;;;;;;10.04;100.00;100574.59;5093083;28;20028;-71
2022/04/23 05:37:45;;;;;;;30.10;21.83;;;;;;;10.07;100.00;100575.50;5092857;28;20378;-72
2022/04/23 05:40:11;;;;;;;34.25;20.45;;;;;;;10.10;100.00;100572.91;5093353;28;20028;-70
2022/04/23 05:42:36;;;;;;;31.23;22.17;;;;;;;10.13;100.00;100572.97;5094576;28;20380;-72
2022/04/23 05:45:02;;;;;;;32.88;22.42;;;;;;;10.11;100.00;100574.66;5093789;28;20030;-69
2022/04/23 05:47:27;;;;;;;26.75;20.98;;;;;;;10.19;100.00;100569.53;5092862;28;20047;-72
2022/04/23 05:49:52;;;;;;;30.20;21.88;;;;;;;10.17;100.00;100575.63;5095174;28;20035;-70
2022/04/23 05:52:19;;;;;;;27.70;21.88;;;;;;;10.19;100.00;100571.28;5094702;28;20024;-71
2022/04/23 05:54:44;;;;;;;26.95;20.75;;;;;;;10.26;100.00;100581.00;5094905;28;20103;-71
2022/04/23 05:57:10;;;;;;;33.13;22.70;;;;;;;10.22;100.00;100582.72;5094683;28;20178;-71
2022/04/23 05:59:35;;;;;;;28.52;22.70;;;;;;;10.31;100.00;100581.97;5095424;28;20023;-70
2022/04/23 06:02:00;;;;;;;26.17;20.23;;;;;;;10.37;100.00;100586.47;5094339;28;20031;-69
2022/04/23 06:04:27;;;;;;;26.35;20.85;;;;;;;10.33;100.00;100585.50;5093595;28;20024;-70
2022/04/23 06:06:52;;;;;;;28.08;22.13;;;;;;;10.32;100.00;100594.22;5091379;28;20103;-71
2022/04/23 06:09:18;;;;;;;28.38;22.48;;;;;;;10.38;100.00;100589.09;5093555;28;20119;-71
2022/04/23 06:11:43;;;;;;;29.15;22.60;;;;;;;10.37;100.00;100592.59;5093839;28;20024;-70
2022/04/23 06:14:09;;;;;;;26.30;20.55;;;;;;;10.45;100.00;100590.94;5094273;28;20450;-71
2022/04/23 06:16:37;;;;;;;29.38;21.25;;;;;;;10.51;100.00;100589.25;5092817;28;20023;-73
2022/04/23 06:19:03;;;;;;;26.13;21.13;;;;;;;10.59;100.00;100587.59;5093365;28;20059;-71
2022/04/23 06:21:28;;;;;;;25.92;20.90;;;;;;;10.63;100.00;100581.50;5089400;28;20036;-70
2022/04/23 06:23:54;;;;;;;25.23;20.80;;;;;;;10.67;100.00;100579.81;5095081;28;20027;-72
2022/04/23 06:26:19;;;;;;;26.25;20.30;;;;;;;10.68;100.00;100582.47;5093501;28;20110;-70
2022/04/23 06:28:45;;;;;;;27.55;20.08;;;;;;;10.67;100.00;100574.53;5089727;28;20020;-71
2022/04/23 06:31:10;;;;;;;25.85;20.13;;;;;;;10.74;100.00;100569.38;5092508;28;20024;-70
2022/04/23 06:33:35;;;;;;;25.05;19.75;;;;;;;10.80;100.00;100566.81;5092789;28;20024;-71
2022/04/23 06:36:01;;;;;;;26.00;20.20;;;;;;;10.84;100.00;100566.81;5092895;28;20484;-72
2022/04/23 06:38:26;;;;;;;24.55;19.35;;;;;;;10.95;100.00;100570.47;5092415;28;20395;-71
2022/04/23 06:40:51;;;;;;;24.40;19.17;;;;;;;11.02;100.00;100572.28;5093338;28;20046;-71
2022/04/23 06:43:17;;;;;;;26.23;19.95;;;;;;;10.94;100.00;100569.56;5090949;28;20172;-71
2022/04/23 06:45:43;;;;;;;25.98;19.52;;;;;;;10.99;100.00;100569.66;5093167;28;20431;-71
2022/04/23 06:48:08;;;;;;;30.58;19.67;;;;;;;11.04;100.00;100567.94;5092333;28;20428;-71
2022/04/23 06:50:35;;;;;;;23.70;19.27;;;;;;;11.14;100.00;100564.50;5094349;28;20024;-71
2022/04/23 06:53:01;;;;;;;26.48;19.95;;;;;;;11.15;100.00;100557.53;5091532;28;20486;-72
2022/04/23 06:55:28;;;;;;;23.25;18.30;;;;;;;11.16;100.00;100553.13;5093125;28;20028;-70
2022/04/23 06:57:53;;;;;;;26.00;20.08;;;;;;;11.19;100.00;100558.41;5095218;28;20470;-71
2022/04/23 07:00:22;;;;;;;28.15;18.92;;;;;;;11.27;100.00;100562.00;5092397;28;20024;-75
2022/04/23 07:02:50;;;;;;;23.13;18.60;;;;;;;11.38;100.00;100556.81;5091962;28;20039;-69
2022/04/23 07:05:19;;;;;;;23.40;17.77;;;;;;;11.39;100.00;100556.84;5095118;28;20149;-72
2022/04/23 07:07:58;;;;;;;30.83;18.52;;;;;;;11.44;100.00;100552.50;5094024;28;20039;-72
2022/04/23 07:10:26;;;;;;;21.77;18.52;;;;;;;11.44;100.00;100557.75;5083588;28;20048;-74
2022/04/23 07:12:52;;;;;;;21.65;17.23;;;;;;;11.48;100.00;100562.19;5091140;28;20035;-74
2022/04/23 07:15:19;;;;;;;20.48;16.90;;;;;;;11.57;100.00;100552.59;5092628;28;20016;-73
2022/04/23 07:17:45;;;;;;;20.70;16.48;;;;;;;11.62;99.44;100559.69;5091555;28;20040;-74
2022/04/23 07:20:11;;;;;;;22.15;17.23;;;;;;;11.68;99.77;100548.28;5093341;28;20035;-73
2022/04/23 07:22:36;;;;;;;21.35;16.73;;;;;;;11.69;99.94;100555.31;5097322;28;20032;-74
2022/04/23 07:25:02;;;;;;;21.80;16.65;;;;;;;11.71;99.29;100547.44;5109427;28;20028;-73
2022/04/23 07:27:27;;;;;;;22.70;16.83;;;;;;;11.74;99.51;100552.72;5091830;28;20032;-73
2022/04/23 07:29:53;;;;;;;22.85;16.23;;;;;;;11.84;99.57;100551.03;5072873;28;20021;-73
2022/04/23 07:32:21;;;;;;;22.40;16.40;;;;;;;12.00;98.43;100544.13;5107491;27;20032;-73
2022/04/23 07:37:31;;;;;;;;;;;;;;;12.13;96.98;100536.28;5093720;28;20514;-74
2022/04/23 07:40:10;;;;;;;19.33;16.15;;;;;;;12.24;96.56;100538.97;5093312;28;19923;-74
2022/04/23 07:42:36;;;;;;;19.05;16.48;;;;;;;12.19;95.99;100537.19;5092236;28;20020;-75
2022/04/23 07:45:01;;;;;;;22.75;16.65;;;;;;;12.18;95.68;100528.41;5092860;28;20032;-72
2022/04/23 07:47:28;;;;;;;22.05;17.02;;;;;;;12.27;96.37;100536.34;5092910;28;20028;-74
2022/04/23 07:49:53;;;;;;;23.50;16.45;;;;;;;12.42;95.79;100530.25;5091976;28;20119;-73
2022/04/23 07:52:19;;;;;;;21.45;16.33;;;;;;;12.47;94.83;100531.16;5091846;28;20118;-75
2022/04/23 07:54:44;;;;;;;19.38;15.93;;;;;;;12.57;94.26;100531.19;5093046;28;20497;-71
2022/04/23 07:57:11;;;;;;;20.15;17.02;;;;;;;12.54;93.60;100521.50;5091865;28;20035;-74
2022/04/23 07:59:44;;;;;;;21.45;16.25;;;;;;;12.65;94.15;100526.81;5090846;28;20370;-74
2022/04/23 08:02:10;;;;;;;19.47;16.37;;;;;;;12.72;94.23;100528.59;5092582;28;20028;-73
2022/04/23 08:04:35;;;;;;;21.13;16.85;;;;;;;12.84;93.77;100521.59;5093296;28;20039;-74
2022/04/23 08:07:01;;;;;;;21.02;17.52;;;;;;;12.95;93.08;100518.09;5093023;28;20104;-74
2022/04/23 08:09:26;;;;;;;19.45;16.25;;;;;;;13.12;92.03;100518.09;5093356;28;20020;-73
2022/04/23 08:11:51;;;;;;;20.05;15.77;;;;;;;13.18;91.27;100514.59;5093440;28;20069;-73
2022/04/23 08:14:17;;;;;;;20.50;16.52;;;;;;;13.32;91.46;100517.22;5091857;28;20024;-75
2022/04/23 08:16:42;;;;;;;21.23;15.73;;;;;;;13.29;90.68;100512.84;5092523;28;20020;-73
2022/04/23 08:19:09;;;;;;;20.15;16.55;;;;;;;13.40;90.54;100511.97;5091727;28;20123;-73
2022/04/23 08:21:35;;;;;;;20.27;16.38;;;;;;;13.53;89.45;100504.94;5090099;28;20044;-73
2022/04/23 08:24:00;;;;;;;25.25;16.95;;;;;;;13.53;89.10;100499.66;5090253;28;20038;-74
2022/04/23 08:26:25;;;;;;;18.40;16.25;;;;;;;13.55;88.33;100497.88;5091835;28;20111;-73
2022/04/23 08:31:35;;;;;;;24.73;16.08;;;;;;;13.90;88.11;100497.78;5092008;28;20063;-73
2022/04/23 08:34:00;;;;;;;31.27;15.68;;;;;;;14.00;86.58;100503.97;5093244;28;20051;-73
2022/04/23 08:36:36;;;;;;;18.05;14.95;;;;;;;14.07;85.94;100495.09;5092576;28;20031;-73
2022/04/23 08:39:05;;;;;;;18.30;15.95;;;;;;;14.02;86.00;100504.81;5091143;28;20016;-73
2022/04/23 08:41:31;;;;;;;21.17;15.27;;;;;;;14.12;84.19;100485.41;5092300;28;20016;-73
2022/04/23 08:44:05;;;;;;;18.85;15.85;;;;;;;14.16;84.83;100491.53;5092341;28;20030;-73
2022/04/23 08:46:35;;;;;;;19.13;15.95;;;;;;;14.36;84.78;100491.44;5092902;28;20036;-74
2022/04/23 08:49:07;;;;;;;16.67;14.23;;;;;;;14.44;84.16;100494.94;5088738;28;20399;-73
2022/04/23 08:51:34;;;;;;;19.73;15.60;;;;;;;14.59;83.82;100488.69;5092738;28;20024;-73
2022/04/23 08:54:05;;;;;;;17.70;15.43;;;;;;;14.71;83.46;100486.91;5092535;28;20378;-72
2022/04/23 08:56:30;;;;;;;20.05;15.07;;;;;;;14.78;83.15;100485.97;5079530;28;20029;-74
2022/04/23 08:58:56;;;;;;;19.75;14.93;;;;;;;14.85;83.42;100487.66;5089855;28;20032;-73
2022/04/23 09:01:22;;;;;;;17.77;14.25;;;;;;;15.11;80.37;100489.25;5090821;28;20081;-74
2022/04/23 09:03:48;;;;;;;17.63;15.20;;;;;;;15.13;79.11;100472.44;5093019;28;20020;-73
2022/04/23 09:06:14;;;;;;;20.58;15.50;;;;;;;14.93;80.83;100484.97;5096599;28;20086;-73
2022/04/23 09:09:06;;;;;;;18.73;14.50;;;;;;;15.07;80.48;100490.16;5096586;28;20480;-74
2022/04/23 09:11:35;;;;;;;17.27;15.18;;;;;;;14.90;80.18;100469.97;5094495;28;20391;-73
2022/04/23 09:14:02;;;;;;;17.98;15.20;;;;;;;14.95;80.88;100464.66;5095855;28;20023;-74
2022/04/23 09:24:46;;;;;;;20.98;14.43;;;;;;;15.40;77.80;100486.38;5097684;28;20063;-73
2022/04/23 09:27:11;;;;;;;17.95;14.20;;;;;;;15.60;78.29;100493.22;5095935;28;20024;-73
2022/04/23 09:29:36;;;;;;;19.50;14.65;;;;;;;15.56;78.28;100481.81;5096420;28;20129;-74
2022/04/23 09:32:09;;;;;;;19.65;14.32;;;;;;;15.59;77.29;100483.53;5095087;28;20035;-73
2022/04/23 09:34:35;;;;;;;16.33;13.53;;;;;;;15.58;76.23;100485.31;5093198;28;20043;-74
2022/04/23 09:37:00;;;;;;;19.27;14.50;;;;;;;15.57;76.94;100483.56;5094727;28;20032;-73
2022/04/23 09:39:34;;;;;;;19.17;15.25;;;;;;;15.54;76.29;100482.72;5094363;28;20095;-73
2022/04/23 09:42:19;;;;;;;17.15;14.80;;;;;;;15.38;76.03;100480.19;5095847;28;20043;-73
2022/04/23 09:44:47;;;;;;;18.02;15.05;;;;;;;15.42;76.80;100483.69;5092160;28;20028;-74
2022/04/23 09:47:34;;;;;;;20.30;15.23;;;;;;;15.65;77.48;100480.81;5094477;28;20040;-73
2022/04/23 09:49:59;;;;;;;17.60;13.85;;;;;;;15.94;75.29;100479.66;5094165;28;20424;-74
2022/04/23 09:52:29;;;;;;;17.85;14.93;;;;;;;15.75;74.20;100487.78;5095445;28;20062;-73
2022/04/23 09:54:56;;;;;;;18.88;15.30;;;;;;;15.69;74.79;100482.53;5094517;28;20043;-73
2022/04/23 09:57:23;;;;;;;18.73;15.60;;;;;;;15.56;75.06;100484.44;5093575;28;20692;-74
2022/04/23 09:59:52;;;;;;;16.80;14.95;;;;;;;15.57;76.06;100503.88;5093719;28;20100;-73
2022/04/23 10:02:19;;;;;;;19.63;15.13;;;;;;;15.59;74.51;100488.84;5095256;28;20379;-73
2022/04/23 10:04:46;;;;;;;18.67;14.95;;;;;;;15.58;75.06;100497.69;5097455;28;20407;-72
2022/04/23 10:07:12;;;;;;;18.05;15.55;;;;;;;15.50;73.70;100495.09;5094202;28;20059;-73
2022/04/23 10:09:41;;;;;;;17.67;14.95;;;;;;;15.69;75.63;100490.50;5095202;28;20059;-73
2022/04/23 10:12:09;;;;;;;21.98;15.75;;;;;;;15.96;74.02;100496.44;5093935;28;20056;-73
2022/04/23 10:14:49;;;;;;;19.42;14.70;;;;;;;16.17;72.51;100496.19;5095610;28;20034;-72
2022/04/23 10:17:17;;;;;;;17.33;14.45;;;;;;;16.29;71.26;100478.34;5096348;28;20155;-73
2022/04/23 10:19:43;;;;;;;25.45;15.05;;;;;;;16.28;72.39;100493.41;5104903;28;20468;-74
2022/04/23 10:22:25;;;;;;;18.90;14.82;;;;;;;16.47;71.06;100478.09;5093795;28;20020;-72
2022/04/23 10:25:06;;;;;;;16.98;13.50;;;;;;;16.50;67.89;100472.75;5087641;28;20028;-73
2022/04/23 10:27:33;;;;;;;19.75;14.90;;;;;;;16.44;69.87;100485.22;5098160;28;20020;-73
2022/04/23 10:30:04;;;;;;;16.67;14.68;;;;;;;16.64;70.61;100490.28;5094089;28;20020;-73
2022/04/23 10:32:38;;;;;;;17.33;14.43;;;;;;;16.57;69.53;100485.94;5092772;28;20028;-75
2022/04/23 10:35:23;;;;;;;19.00;14.95;;;;;;;16.31;71.35;100482.75;5093750;28;20062;-71
2022/04/23 10:37:49;;;;;;;17.55;14.52;;;;;;;16.24;70.45;100485.50;5094443;28;20016;-73
2022/04/23 10:40:17;;;;;;;21.77;15.07;;;;;;;16.29;71.45;100481.00;5094715;28;20438;-72
2022/04/23 10:43:09;;;;;;;16.17;14.48;;;;;;;16.39;70.94;100487.09;5093815;28;20097;-73
2022/04/23 10:45:36;;;;;;;19.45;14.60;;;;;;;16.42;68.80;100479.94;5094944;28;20087;-74
2022/04/23 10:48:19;;;;;;;19.38;15.00;;;;;;;16.58;69.07;100485.06;5093765;28;20458;-73
2022/04/23 10:51:01;;;;;;;;;;;;;;;16.39;67.46;100482.66;5093429;28;20032;-74
2022/04/23 10:53:47;;;;;;;18.13;13.48;;;;;;;16.39;68.73;100469.38;5094389;28;19953;-73
2022/04/23 10:56:16;;;;;;;16.70;13.90;;;;;;;16.57;68.14;100478.84;5078277;28;20039;-73
2022/04/23 10:58:42;;;;;;;19.10;15.00;;;;;;;16.71;68.84;100476.00;5094646;28;20035;-73
2022/04/23 11:01:23;;;;;;;19.90;14.27;;;;;;;16.67;68.42;100468.97;5093163;28;20028;-73
2022/04/23 11:03:56;;;;;;;19.23;13.85;;;;;;;17.01;67.39;100469.38;5094582;28;20080;-73
2022/04/23 11:12:14;;;;;;;19.42;15.00;;;;;;;17.17;66.78;100458.47;5093207;28;20062;-73
2022/04/23 11:12:23;;;;;;;18.70;15.63;;;;;;;17.23;67.22;100470.78;5094363;28;20077;-72
2022/04/23 11:14:53;;;;;;;15.43;13.02;;;;;;;17.21;65.60;100454.84;5093860;28;20416;-73
2022/04/23 11:17:37;;;;;;;15.73;13.57;;;;;;;17.77;65.46;100459.16;5093892;28;20491;-73
2022/04/23 11:20:03;;;;;;;20.02;14.15;;;;;;;18.36;65.80;100450.91;5093340;28;20124;-72
2022/04/23 11:22:28;;;;;;;19.45;14.65;;;;;;;18.81;61.66;100444.53;5108321;28;20161;-72
2022/04/23 11:24:55;;;;;;;17.90;13.98;;;;;;;19.25;59.54;100450.59;5091268;28;20043;-73
2022/04/23 11:27:25;;;;;;;15.05;13.48;;;;;;;19.53;57.25;100445.41;5093251;28;20031;-73